Time;durP1;ratioP1;P1;durP2;ratioP2;P2;SDS_P1;SDS_P2;PMS_P1;PMS_P2;Temp;Humidity;BMP_temperature;BMP_pressure;BME280_temperature;BME280_humidity;BME280_pressure;Samples;Min_cycle;Max_cycle;Signal;HPM_P1;HPM_P2
2023/06/25 00:02:13;;;;;;;10.68;5.53;;;20.80;75.30;;;;;;5096603;28;20027;-92
2023/06/25 00:04:46;;;;;;;10.35;5.40;;;20.90;75.40;;;;;;5094352;28;20111;-92
2023/06/25 00:07:12;;;;;;;11.48;5.13;;;20.80;75.40;;;;;;5093816;28;20038;-92
2023/06/25 00:09:39;;;;;;;11.10;5.53;;;20.80;75.50;;;;;;5092381;28;20464;-92
2023/06/25 00:12:06;;;;;;;11.85;5.50;;;20.80;75.50;;;;;;5091858;28;20034;-92
2023/06/25 00:14:31;;;;;;;13.60;5.90;;;20.90;75.60;;;;;;5094363;28;20026;-92
2023/06/25 00:16:57;;;;;;;9.68;5.45;;;20.80;75.60;;;;;;5093333;28;20020;-92
2023/06/25 00:19:24;;;;;;;10.93;5.35;;;20.80;75.60;;;;;;5093347;28;20034;-91
2023/06/25 00:21:49;;;;;;;8.63;5.55;;;20.80;75.60;;;;;;5088075;28;20110;-92
2023/06/25 00:24:15;;;;;;;6.70;4.70;;;20.80;75.60;;;;;;5093412;28;20055;-92
2023/06/25 00:26:45;;;;;;;8.40;5.10;;;20.80;75.70;;;;;;5094129;28;20019;-91
2023/06/25 00:29:12;;;;;;;8.07;5.20;;;20.80;75.70;;;;;;5095415;28;20031;-91
2023/06/25 00:31:37;;;;;;;8.68;4.70;;;20.80;75.70;;;;;;5092678;28;20020;-92
2023/06/25 00:34:03;;;;;;;8.63;5.53;;;20.80;75.70;;;;;;5092813;28;20536;-91
2023/06/25 00:36:36;;;;;;;8.35;4.72;;;20.80;75.80;;;;;;5098336;28;20015;-91
2023/06/25 00:39:05;;;;;;;6.90;4.30;;;20.80;75.80;;;;;;5097760;28;20028;-92
2023/06/25 00:41:30;;;;;;;7.88;5.07;;;20.80;76.60;;;;;;5098952;28;20015;-91
2023/06/25 00:43:58;;;;;;;10.85;4.93;;;20.80;75.80;;;;;;5095914;28;20020;-92
2023/06/25 00:46:25;;;;;;;11.40;4.90;;;20.80;75.90;;;;;;5094821;28;20016;-92
2023/06/25 00:48:51;;;;;;;10.13;4.40;;;20.80;75.80;;;;;;5098128;28;20016;-92
2023/06/25 00:51:21;;;;;;;8.88;4.70;;;20.80;75.80;;;;;;5097515;28;20024;-91
2023/06/25 00:53:47;;;;;;;9.65;5.05;;;20.80;75.80;;;;;;5096287;28;20016;-91
2023/06/25 00:56:13;;;;;;;7.55;4.45;;;20.80;75.80;;;;;;5098119;28;20072;-91
2023/06/25 00:58:39;;;;;;;9.95;5.05;;;20.80;75.90;;;;;;5099164;28;20024;-91
2023/06/25 01:01:17;;;;;;;7.38;5.00;;;20.80;75.90;;;;;;5099289;28;20019;-91
2023/06/25 01:03:54;;;;;;;10.30;5.93;;;20.80;75.90;;;;;;5099669;28;20031;-91
2023/06/25 01:06:40;;;;;;;9.07;5.25;;;20.80;76.00;;;;;;5094259;28;20046;-92
2023/06/25 01:09:11;;;;;;;7.20;4.50;;;20.80;75.90;;;;;;5111312;27;20424;-92
2023/06/25 01:11:38;;;;;;;7.47;4.70;;;20.70;75.90;;;;;;5092951;28;20027;-91
2023/06/25 01:14:04;;;;;;;8.77;4.78;;;20.70;76.00;;;;;;5097391;28;20031;-92
2023/06/25 01:16:30;;;;;;;9.52;4.20;;;20.70;76.00;;;;;;5117371;28;20020;-92
2023/06/25 01:19:02;;;;;;;8.32;4.60;;;20.70;76.10;;;;;;5098594;28;20046;-92
2023/06/25 01:21:28;;;;;;;11.35;4.93;;;20.70;76.00;;;;;;5098502;28;20020;-91
2023/06/25 01:23:54;;;;;;;8.75;4.93;;;20.80;76.10;;;;;;5101287;28;20110;-91
2023/06/25 01:26:20;;;;;;;9.07;5.00;;;20.70;76.00;;;;;;5098518;28;20103;-92
2023/06/25 01:28:46;;;;;;;7.15;4.80;;;20.70;76.00;;;;;;5115615;28;20043;-91
2023/06/25 01:31:11;;;;;;;8.25;4.38;;;20.70;76.10;;;;;;5098969;27;20467;-90
2023/06/25 01:33:38;;;;;;;6.32;4.60;;;20.70;76.10;;;;;;5099036;28;20030;-91
2023/06/25 01:36:04;;;;;;;11.70;5.07;;;20.70;76.10;;;;;;5097101;28;20031;-91
2023/06/25 01:38:30;;;;;;;6.70;4.80;;;20.70;76.10;;;;;;5096895;28;20019;-91
2023/06/25 01:40:56;;;;;;;7.13;4.63;;;20.70;76.10;;;;;;5096914;28;20080;-92
2023/06/25 01:43:21;;;;;;;8.50;4.60;;;20.70;76.10;;;;;;5095111;28;20110;-92
2023/06/25 01:45:47;;;;;;;12.02;5.03;;;20.70;76.10;;;;;;5094656;28;20086;-91
2023/06/25 01:48:13;;;;;;;8.05;4.80;;;20.70;76.10;;;;;;5097015;28;20119;-92
2023/06/25 01:50:39;;;;;;;12.63;4.70;;;20.70;76.20;;;;;;5096406;28;20015;-92
2023/06/25 01:53:05;;;;;;;7.47;4.80;;;20.70;76.90;;;;;;5096653;28;20601;-92
2023/06/25 01:55:30;;;;;;;12.93;4.70;;;20.70;76.10;;;;;;5096230;28;20118;-91
2023/06/25 01:57:56;;;;;;;9.05;4.60;;;20.70;76.10;;;;;;5096110;28;20024;-92
2023/06/25 02:00:23;;;;;;;14.43;4.03;;;20.70;76.20;;;;;;5095920;28;20023;-92
2023/06/25 02:02:48;;;;;;;6.85;4.35;;;20.70;76.20;;;;;;5096736;27;20015;-92
2023/06/25 02:05:14;;;;;;;8.85;4.72;;;20.70;76.20;;;;;;5097033;28;20478;-92
2023/06/25 02:07:40;;;;;;;8.20;4.68;;;20.70;76.20;;;;;;5098277;28;20018;-93
2023/06/25 02:10:06;;;;;;;7.88;4.25;;;20.70;76.20;;;;;;5090171;28;20024;-92
2023/06/25 02:12:31;;;;;;;6.28;4.20;;;20.70;76.10;;;;;;5097004;28;20030;-93
2023/06/25 02:14:57;;;;;;;8.02;5.10;;;20.70;76.20;;;;;;5096011;28;20023;-92
2023/06/25 02:17:23;;;;;;;6.90;4.30;;;20.60;76.00;;;;;;5119158;27;20045;-93
2023/06/25 02:19:48;;;;;;;6.32;4.45;;;20.60;76.10;;;;;;5098902;27;20051;-92
2023/06/25 02:22:14;;;;;;;8.38;4.40;;;20.70;76.10;;;;;;5099932;27;20106;-92
2023/06/25 02:24:40;;;;;;;7.00;4.30;;;20.60;76.10;;;;;;5116098;27;20057;-92
2023/06/25 02:27:06;;;;;;;6.65;4.53;;;20.60;76.10;;;;;;5093293;28;20051;-92
2023/06/25 02:29:31;;;;;;;8.52;4.78;;;20.60;76.10;;;;;;5113834;28;20023;-92
2023/06/25 02:31:57;;;;;;;8.43;5.30;;;20.60;76.00;;;;;;5091389;28;20117;-92
2023/06/25 02:34:22;;;;;;;11.27;4.97;;;20.60;76.00;;;;;;5098644;27;20064;-91
2023/06/25 02:36:50;;;;;;;7.75;4.78;;;20.60;76.00;;;;;;5113291;28;20023;-91
2023/06/25 02:39:16;;;;;;;6.50;4.30;;;20.60;76.00;;;;;;5097319;27;20019;-92
2023/06/25 02:41:41;;;;;;;10.48;4.70;;;20.60;76.00;;;;;;5095638;28;20026;-93
2023/06/25 02:44:07;;;;;;;5.68;4.18;;;20.60;76.00;;;;;;5095647;28;20027;-92
2023/06/25 02:46:35;;;;;;;8.60;4.68;;;20.60;76.00;;;;;;5085711;28;20031;-91
2023/06/25 02:49:01;;;;;;;6.32;4.18;;;20.60;76.00;;;;;;5099135;28;20016;-93
2023/06/25 02:51:27;;;;;;;13.90;4.63;;;20.60;76.00;;;;;;5115235;27;20500;-92
2023/06/25 02:53:53;;;;;;;7.57;4.75;;;20.60;76.00;;;;;;5094392;28;20019;-90
2023/06/25 02:56:18;;;;;;;7.55;4.43;;;20.60;76.00;;;;;;5093465;28;20361;-91
2023/06/25 02:58:44;;;;;;;7.30;4.40;;;20.60;76.00;;;;;;5097896;28;20027;-92
2023/06/25 03:01:09;;;;;;;8.18;4.82;;;20.60;76.00;;;;;;5097217;28;20055;-92
2023/06/25 03:03:35;;;;;;;7.00;4.38;;;20.60;76.00;;;;;;5092131;27;20031;-92
2023/06/25 03:06:01;;;;;;;7.85;4.30;;;20.60;75.90;;;;;;5095493;28;20035;-92
2023/06/25 03:08:27;;;;;;;7.57;4.43;;;20.60;76.00;;;;;;5094782;28;20016;-91
2023/06/25 03:10:52;;;;;;;6.40;4.13;;;20.60;76.00;;;;;;5096656;27;20020;-91
2023/06/25 03:13:18;;;;;;;9.60;4.57;;;20.60;76.00;;;;;;5096513;28;20049;-92
2023/06/25 03:15:44;;;;;;;13.70;4.13;;;20.60;76.00;;;;;;5093869;28;20053;-92
2023/06/25 03:18:09;;;;;;;6.85;4.10;;;20.60;76.00;;;;;;5097165;28;20157;-92
2023/06/25 03:20:35;;;;;;;13.15;4.43;;;20.60;76.00;;;;;;5097182;27;20015;-92
2023/06/25 03:23:01;;;;;;;6.38;4.50;;;20.60;76.00;;;;;;5093045;28;20380;-93
2023/06/25 03:25:26;;;;;;;9.68;4.32;;;20.60;75.90;;;;;;5091143;28;20015;-91
2023/06/25 03:27:52;;;;;;;8.15;4.68;;;20.60;75.90;;;;;;5100009;28;20016;-92
2023/06/25 03:30:17;;;;;;;6.50;3.88;;;20.60;75.90;;;;;;5101484;27;20015;-93
2023/06/25 03:32:44;;;;;;;6.53;3.78;;;20.60;75.90;;;;;;5095732;28;20026;-93
2023/06/25 03:35:10;;;;;;;7.90;4.38;;;20.60;75.90;;;;;;5093983;28;20407;-92
2023/06/25 03:37:35;;;;;;;8.65;4.57;;;20.60;75.80;;;;;;5095946;28;20024;-92
2023/06/25 03:40:01;;;;;;;5.43;4.10;;;20.50;75.80;;;;;;5095740;28;20035;-93
2023/06/25 03:42:27;;;;;;;7.88;4.13;;;20.60;75.90;;;;;;5095762;28;20023;-92
2023/06/25 03:44:54;;;;;;;6.25;4.57;;;20.60;75.90;;;;;;5093396;28;20072;-92
2023/06/25 03:47:20;;;;;;;7.05;4.55;;;20.60;75.90;;;;;;5093634;28;20020;-92
2023/06/25 03:49:46;;;;;;;8.95;4.38;;;20.60;75.80;;;;;;5095597;28;20402;-92
2023/06/25 03:52:11;;;;;;;7.95;4.20;;;20.50;75.80;;;;;;5093367;28;20094;-90
2023/06/25 03:54:37;;;;;;;5.80;3.97;;;20.50;75.80;;;;;;5092385;28;20016;-93
2023/06/25 03:57:03;;;;;;;7.22;4.03;;;20.50;75.80;;;;;;5097252;28;20081;-92
2023/06/25 03:59:29;;;;;;;9.10;4.82;;;20.50;75.80;;;;;;5094528;28;20114;-92
2023/06/25 04:01:55;;;;;;;7.60;4.10;;;20.50;75.80;;;;;;5095871;28;20641;-92
2023/06/25 04:04:20;;;;;;;5.93;4.05;;;20.50;75.80;;;;;;5094130;28;20024;-92
2023/06/25 04:06:46;;;;;;;10.23;4.57;;;20.50;75.80;;;;;;5094562;28;20073;-92
2023/06/25 04:09:12;;;;;;;10.77;4.00;;;20.50;75.80;;;;;;5094348;28;20035;-91
2023/06/25 04:11:37;;;;;;;8.50;4.57;;;20.50;75.80;;;;;;5091137;28;20446;-91
2023/06/25 04:14:03;;;;;;;8.90;4.68;;;20.50;75.80;;;;;;5093586;28;20022;-92
2023/06/25 04:16:29;;;;;;;7.55;4.45;;;20.50;75.80;;;;;;5094286;28;20476;-92
2023/06/25 04:18:54;;;;;;;15.68;5.00;;;20.50;75.80;;;;;;5082193;28;20066;-91
2023/06/25 04:21:20;;;;;;;7.65;4.82;;;20.50;75.90;;;;;;5084797;28;20039;-91
2023/06/25 04:23:46;;;;;;;7.28;3.97;;;20.50;75.80;;;;;;5086345;28;20020;-89
2023/06/25 04:26:12;;;;;;;8.75;5.15;;;20.50;75.80;;;;;;5094170;28;20569;-92
2023/06/25 04:28:37;;;;;;;7.72;4.60;;;20.50;75.80;;;;;;5090412;28;20098;-92
2023/06/25 04:31:03;;;;;;;8.20;5.10;;;20.50;75.80;;;;;;5111822;28;20024;-91
2023/06/25 04:33:29;;;;;;;7.13;4.22;;;20.50;75.70;;;;;;5090099;28;20525;-92
2023/06/25 04:35:54;;;;;;;10.60;4.78;;;20.50;76.40;;;;;;5094221;28;20011;-92
2023/06/25 04:38:20;;;;;;;7.55;5.05;;;20.50;75.60;;;;;;5094864;28;20023;-90
2023/06/25 04:40:45;;;;;;;8.77;4.97;;;20.50;75.50;;;;;;5093194;28;20027;-91
2023/06/25 04:43:11;;;;;;;8.43;4.70;;;20.50;75.50;;;;;;5087599;28;20110;-92
2023/06/25 04:45:37;;;;;;;12.10;5.05;;;20.50;75.50;;;;;;5092782;28;20020;-91
2023/06/25 04:48:02;;;;;;;7.57;4.43;;;20.60;75.70;;;;;;5093827;28;20161;-91
2023/06/25 04:50:28;;;;;;;7.63;5.03;;;20.50;75.60;;;;;;5089748;28;20031;-91
2023/06/25 04:52:54;;;;;;;11.32;4.50;;;20.50;75.60;;;;;;5091007;28;20027;-90
2023/06/25 04:55:20;;;;;;;9.70;4.80;;;20.60;75.80;;;;;;5113072;28;20023;-90
2023/06/25 04:57:46;;;;;;;8.50;4.15;;;20.50;75.10;;;;;;5087644;28;20028;-91
2023/06/25 05:00:12;;;;;;;6.97;4.85;;;20.20;72.40;;;;;;5092327;28;20019;-90
2023/06/25 05:02:37;;;;;;;9.75;4.78;;;20.00;71.90;;;;;;5091918;28;20035;-90
2023/06/25 05:05:04;;;;;;;9.43;5.00;;;19.80;72.10;;;;;;5111800;28;20036;-90
2023/06/25 05:07:29;;;;;;;8.85;4.78;;;19.70;71.90;;;;;;5093528;28;20016;-90
2023/06/25 05:09:55;;;;;;;9.20;5.20;;;19.80;71.60;;;;;;5091686;28;20027;-92
2023/06/25 05:12:21;;;;;;;10.23;5.35;;;19.80;71.20;;;;;;5112929;27;20076;-89
2023/06/25 05:14:46;;;;;;;8.95;5.40;;;19.80;70.80;;;;;;5098212;28;20027;-92
2023/06/25 05:17:12;;;;;;;8.90;5.13;;;19.80;70.70;;;;;;5096207;28;20023;-91
2023/06/25 05:19:37;;;;;;;8.18;4.90;;;19.80;71.70;;;;;;5097213;28;20039;-93
2023/06/25 05:22:05;;;;;;;9.50;5.22;;;19.80;70.80;;;;;;5101204;28;20684;-92
2023/06/25 05:24:30;;;;;;;8.45;4.72;;;19.90;70.90;;;;;;5093945;28;20016;-95
2023/06/25 05:26:56;;;;;;;7.05;4.82;;;19.80;70.80;;;;;;5086744;27;20160;-95
2023/06/25 05:29:22;;;;;;;12.25;5.20;;;19.80;70.80;;;;;;5094841;28;20023;-91
2023/06/25 05:31:47;;;;;;;9.27;4.47;;;19.90;71.00;;;;;;5092749;28;20468;-93
2023/06/25 05:34:13;;;;;;;8.35;5.32;;;19.90;71.20;;;;;;5096463;28;20555;-92
2023/06/25 05:36:39;;;;;;;8.60;5.25;;;19.90;71.10;;;;;;5092339;28;20024;-93
2023/06/25 05:39:04;;;;;;;11.88;5.38;;;19.90;71.00;;;;;;5109498;28;20384;-93
2023/06/25 05:41:30;;;;;;;8.00;4.63;;;19.80;70.80;;;;;;5095726;28;20023;-90
2023/06/25 05:43:56;;;;;;;10.15;5.20;;;19.90;70.90;;;;;;5088536;28;20020;-94
2023/06/25 05:46:21;;;;;;;10.82;5.13;;;19.90;70.80;;;;;;5097719;28;20042;-91
2023/06/25 05:48:47;;;;;;;8.60;5.18;;;20.00;71.20;;;;;;5089613;28;20023;-91
2023/06/25 05:51:13;;;;;;;9.13;5.53;;;20.00;71.10;;;;;;5085180;28;20709;-89
2023/06/25 05:53:40;;;;;;;9.77;5.40;;;20.10;71.30;;;;;;5087163;28;20073;-87
2023/06/25 05:56:06;;;;;;;11.20;6.22;;;20.00;71.70;;;;;;5087918;28;20024;-91
2023/06/25 05:58:36;;;;;;;30.38;6.80;;;20.00;71.90;;;;;;5095403;28;20106;-91
2023/06/25 06:01:03;;;;;;;14.02;5.50;;;20.10;71.80;;;;;;5091550;28;20162;-93
2023/06/25 06:03:29;;;;;;;10.85;5.20;;;20.10;71.50;;;;;;5096299;28;20032;-90
2023/06/25 06:05:57;;;;;;;11.30;5.80;;;20.10;71.30;;;;;;5087530;28;20054;-91
2023/06/25 06:08:23;;;;;;;10.43;5.68;;;20.10;71.60;;;;;;5094455;28;20012;-90
2023/06/25 06:10:48;;;;;;;7.97;5.47;;;20.10;71.60;;;;;;5108206;28;20016;-91
2023/06/25 06:13:15;;;;;;;10.18;5.88;;;20.20;71.60;;;;;;5096011;28;20039;-90
2023/06/25 06:15:41;;;;;;;8.68;5.10;;;20.20;71.80;;;;;;5095720;28;20061;-91
2023/06/25 06:18:06;;;;;;;17.45;6.55;;;20.30;71.90;;;;;;5114344;28;20024;-91
2023/06/25 06:20:32;;;;;;;15.25;6.70;;;20.20;71.60;;;;;;5096409;28;20507;-89
2023/06/25 06:22:58;;;;;;;7.82;5.10;;;20.30;71.30;;;;;;5113151;28;20423;-89
2023/06/25 06:25:24;;;;;;;9.82;5.72;;;20.30;71.60;;;;;;5096870;28;20098;-90
2023/06/25 06:27:49;;;;;;;9.80;5.93;;;20.30;71.60;;;;;;5089744;28;20051;-90
2023/06/25 06:30:15;;;;;;;11.60;6.45;;;20.30;71.20;;;;;;5099480;27;20019;-91
2023/06/25 06:32:41;;;;;;;14.15;6.93;;;20.40;70.90;;;;;;5116307;27;20015;-90
2023/06/25 06:35:07;;;;;;;11.93;6.10;;;20.30;69.90;;;;;;5101113;27;20499;-89
2023/06/25 06:37:33;;;;;;;11.90;6.30;;;20.30;70.30;;;;;;5113758;28;20064;-89
2023/06/25 06:39:59;;;;;;;11.27;5.80;;;20.40;70.40;;;;;;5089989;28;20024;-92
2023/06/25 06:42:24;;;;;;;10.52;6.07;;;20.50;70.50;;;;;;5095508;28;20551;-90
2023/06/25 06:44:50;;;;;;;9.07;5.72;;;20.50;70.80;;;;;;5089326;28;20510;-91
2023/06/25 06:47:15;;;;;;;9.45;5.88;;;20.60;70.50;;;;;;5114139;27;20016;-94
2023/06/25 06:49:41;;;;;;;10.13;5.75;;;20.60;70.70;;;;;;5094410;28;20021;-90
2023/06/25 06:52:07;;;;;;;9.63;5.57;;;20.50;70.80;;;;;;5089813;28;20023;-90
2023/06/25 06:54:32;;;;;;;10.55;6.05;;;20.50;70.70;;;;;;5115400;27;20019;-92
2023/06/25 06:56:58;;;;;;;12.60;7.00;;;20.60;70.90;;;;;;5090910;28;20479;-91
2023/06/25 06:59:24;;;;;;;9.50;5.93;;;20.50;70.30;;;;;;5095133;28;20202;-91
2023/06/25 07:01:49;;;;;;;9.32;5.63;;;20.50;70.50;;;;;;5090102;28;20536;-90
2023/06/25 07:04:15;;;;;;;10.63;5.78;;;20.60;71.10;;;;;;5090469;28;20024;-92
2023/06/25 07:06:41;;;;;;;10.90;6.20;;;20.70;71.10;;;;;;5095510;28;20034;-91
2023/06/25 07:09:06;;;;;;;8.10;4.82;;;20.80;70.80;;;;;;5089917;28;20534;-93
2023/06/25 07:11:32;;;;;;;17.92;7.45;;;20.80;71.00;;;;;;5112469;28;20023;-91
2023/06/25 07:13:57;;;;;;;9.43;5.93;;;20.80;70.20;;;;;;5093436;28;20520;-89
2023/06/25 07:16:23;;;;;;;13.07;6.78;;;20.80;69.40;;;;;;5090796;28;20101;-92
2023/06/25 07:18:49;;;;;;;8.88;4.95;;;20.80;69.80;;;;;;5090706;28;20020;-92
2023/06/25 07:21:14;;;;;;;9.38;5.60;;;21.00;69.70;;;;;;5095439;27;20168;-93
2023/06/25 07:23:40;;;;;;;8.75;5.57;;;21.10;69.40;;;;;;5113412;27;20099;-92
2023/06/25 07:26:06;;;;;;;7.70;4.78;;;21.10;69.60;;;;;;5095159;28;20475;-90
2023/06/25 07:28:31;;;;;;;10.35;5.43;;;21.10;69.70;;;;;;5094996;28;20501;-92
2023/06/25 07:30:57;;;;;;;9.85;5.13;;;21.10;69.50;;;;;;5086077;28;20027;-92
2023/06/25 07:33:22;;;;;;;7.75;5.25;;;21.10;69.60;;;;;;5095401;28;20114;-90
2023/06/25 07:35:48;;;;;;;8.52;5.25;;;21.20;69.60;;;;;;5089736;28;20051;-90
2023/06/25 07:38:14;;;;;;;11.77;5.32;;;21.20;69.80;;;;;;5094982;28;20054;-92
2023/06/25 07:40:39;;;;;;;7.93;4.38;;;21.30;69.40;;;;;;5098068;28;20106;-90
2023/06/25 07:43:05;;;;;;;9.98;5.93;;;21.20;69.40;;;;;;5090181;28;20460;-93
2023/06/25 07:45:31;;;;;;;8.30;4.55;;;21.10;69.40;;;;;;5096023;28;20102;-90
2023/06/25 07:47:56;;;;;;;11.23;5.55;;;21.20;69.00;;;;;;5092518;28;20020;-92
2023/06/25 07:50:22;;;;;;;10.75;5.43;;;21.20;68.70;;;;;;5087312;28;20103;-91
2023/06/25 07:52:47;;;;;;;10.50;4.97;;;21.30;68.30;;;;;;5093924;28;20035;-91
2023/06/25 07:55:13;;;;;;;7.63;5.15;;;21.30;69.40;;;;;;5094136;28;20059;-91
2023/06/25 07:57:39;;;;;;;7.57;4.60;;;21.30;69.40;;;;;;5093696;28;20404;-92
2023/06/25 08:00:06;;;;;;;9.52;5.57;;;21.30;69.40;;;;;;5092211;28;20408;-94
2023/06/25 08:02:32;;;;;;;6.70;4.68;;;21.40;68.90;;;;;;5076557;28;20042;-92
2023/06/25 08:04:58;;;;;;;8.70;4.60;;;21.50;68.80;;;;;;5093385;28;20023;-90
2023/06/25 08:07:23;;;;;;;9.95;4.95;;;21.50;68.70;;;;;;5093894;28;20019;-92
2023/06/25 08:09:49;;;;;;;9.73;5.00;;;21.50;69.40;;;;;;5092641;28;20020;-91
2023/06/25 08:12:16;;;;;;;11.50;5.70;;;21.50;69.20;;;;;;5094812;28;20042;-92
2023/06/25 08:14:41;;;;;;;13.88;5.97;;;21.60;68.70;;;;;;5096207;28;20020;-94
2023/06/25 08:17:07;;;;;;;12.20;5.72;;;21.60;68.90;;;;;;5097472;28;20046;-96
2023/06/25 08:19:33;;;;;;;10.38;6.20;;;21.60;68.50;;;;;;5098444;28;20061;-95
2023/06/25 08:21:58;;;;;;;7.22;4.75;;;21.60;68.10;;;;;;5093191;28;20020;-92
2023/06/25 08:24:24;;;;;;;13.10;6.20;;;21.60;68.40;;;;;;5094365;28;20063;-94
2023/06/25 08:26:50;;;;;;;12.73;5.20;;;21.60;68.90;;;;;;5098427;28;20012;-92
2023/06/25 08:29:15;;;;;;;12.65;6.32;;;21.70;68.50;;;;;;5094006;28;20058;-92
2023/06/25 08:31:41;;;;;;;14.00;6.45;;;21.70;68.70;;;;;;5094277;28;20015;-91
2023/06/25 08:34:09;;;;;;;11.32;6.38;;;21.70;68.70;;;;;;5093132;28;20032;-96
2023/06/25 08:36:36;;;;;;;10.25;5.60;;;21.70;68.90;;;;;;5097488;28;20589;-95
2023/06/25 08:39:01;;;;;;;11.10;6.25;;;21.70;68.00;;;;;;5096830;28;20024;-94
2023/06/25 08:41:28;;;;;;;10.27;5.80;;;21.70;68.10;;;;;;5084861;28;20030;-95
2023/06/25 08:43:54;;;;;;;12.02;7.05;;;21.70;69.00;;;;;;5100323;28;20464;-95
2023/06/25 08:46:22;;;;;;;8.35;5.05;;;21.80;68.60;;;;;;5092014;28;20529;-93
2023/06/25 08:48:53;;;;;;;8.65;5.18;;;21.70;68.60;;;;;;5105444;27;20043;-89
2023/06/25 08:51:23;;;;;;;9.23;5.68;;;21.70;68.60;;;;;;5125833;27;20030;-94
2023/06/25 08:53:49;;;;;;;13.00;5.75;;;21.70;68.60;;;;;;5096674;28;20020;-95
2023/06/25 08:56:18;;;;;;;12.98;6.30;;;21.80;69.20;;;;;;5098568;28;20105;-96
2023/06/25 08:58:44;;;;;;;9.65;5.60;;;21.80;68.80;;;;;;5100568;28;20602;-95
2023/06/25 09:01:14;;;;;;;9.73;6.50;;;21.80;68.50;;;;;;5098407;27;20470;-95
2023/06/25 09:03:57;;;;;;;13.52;5.75;;;21.80;68.60;;;;;;5106431;28;20019;-96
2023/06/25 09:06:23;;;;;;;9.70;6.13;;;21.80;68.90;;;;;;5097720;28;20032;-96
2023/06/25 09:09:02;;;;;;;10.95;5.57;;;21.80;68.30;;;;;;5109406;28;20023;-90
2023/06/25 09:11:31;;;;;;;8.83;4.63;;;21.90;67.80;;;;;;5099592;28;20027;-95
2023/06/25 09:13:59;;;;;;;10.70;5.15;;;21.90;67.50;;;;;;5101053;28;20262;-92
2023/06/25 09:16:26;;;;;;;8.25;5.00;;;21.90;67.90;;;;;;5099546;28;20031;-89
2023/06/25 09:18:52;;;;;;;13.45;6.28;;;21.90;67.80;;;;;;5101592;28;20019;-96
2023/06/25 09:21:17;;;;;;;10.85;5.13;;;21.90;67.30;;;;;;5100064;28;20082;-94
2023/06/25 09:23:51;;;;;;;9.40;5.90;;;21.90;67.20;;;;;;5098373;28;20020;-94
2023/06/25 09:26:17;;;;;;;10.25;5.65;;;21.90;67.50;;;;;;5111973;27;20019;-96
2023/06/25 09:28:49;;;;;;;8.10;5.10;;;21.90;68.20;;;;;;5098754;28;20104;-91
2023/06/25 09:31:16;;;;;;;8.45;5.18;;;22.00;66.90;;;;;;5116157;28;20030;-96
2023/06/25 09:33:50;;;;;;;8.40;5.32;;;21.90;67.30;;;;;;5101513;28;20016;-96
2023/06/25 09:36:35;;;;;;;7.60;5.20;;;21.90;66.80;;;;;;5095068;28;20028;-96
2023/06/25 09:39:03;;;;;;;10.25;4.75;;;22.00;66.40;;;;;;5095247;28;20080;-93
2023/06/25 09:41:33;;;;;;;8.68;5.40;;;22.00;66.80;;;;;;5100951;28;20028;-95
2023/06/25 09:44:06;;;;;;;12.80;6.47;;;22.00;66.80;;;;;;5097989;28;20042;-94
2023/06/25 09:47:06;;;;;;;10.05;5.75;;;22.00;66.20;;;;;;5101062;27;20020;-96
2023/06/25 09:49:32;;;;;;;9.60;6.22;;;22.00;66.70;;;;;;5098794;28;20031;-93
2023/06/25 09:52:04;;;;;;;8.93;4.50;;;22.00;66.50;;;;;;5099173;28;20023;-92
2023/06/25 09:54:30;;;;;;;10.77;4.88;;;22.00;67.70;;;;;;5101340;28;21057;-96
2023/06/25 09:57:17;;;;;;;7.25;5.38;;;22.10;67.80;;;;;;5105170;28;20032;-96
2023/06/25 09:59:46;;;;;;;11.70;6.15;;;22.10;66.90;;;;;;5101269;28;20020;-93
2023/06/25 10:02:15;;;;;;;7.85;4.85;;;22.10;66.90;;;;;;5100473;28;20027;-95
2023/06/25 10:04:44;;;;;;;7.68;5.38;;;22.10;67.30;;;;;;5104994;28;20024;-96
2023/06/25 10:07:11;;;;;;;16.05;5.10;;;22.10;67.50;;;;;;5103339;28;20019;-96
2023/06/25 10:09:37;;;;;;;11.27;4.95;;;22.20;66.00;;;;;;5105529;28;20035;-91
2023/06/25 10:12:03;;;;;;;11.23;5.53;;;22.30;64.60;;;;;;5100483;28;20091;-95
2023/06/25 10:14:38;;;;;;;9.30;5.65;;;22.30;64.70;;;;;;5105195;27;20091;-96
2023/06/25 10:17:08;;;;;;;13.43;5.80;;;22.30;65.60;;;;;;5108886;28;20028;-96
2023/06/25 10:19:34;;;;;;;8.40;5.53;;;22.50;66.10;;;;;;5104371;28;20028;-92
2023/06/25 10:22:26;;;;;;;10.10;6.40;;;22.30;66.30;;;;;;5097623;28;20062;-94
2023/06/25 10:25:00;;;;;;;14.25;7.00;;;22.40;66.10;;;;;;5113466;28;20063;-96
2023/06/25 10:28:00;;;;;;;8.63;4.78;;;22.30;65.30;;;;;;5108308;27;20020;-92
2023/06/25 10:31:26;;;;;;;10.18;6.10;;;22.20;65.60;;;;;;5032381;28;20032;-95
2023/06/25 10:34:02;;;;;;;10.32;6.40;;;22.40;65.00;;;;;;4935066;29;20663;-96
2023/06/25 10:36:47;;;;;;;13.43;6.28;;;22.40;65.00;;;;;;4926878;29;20036;-95
2023/06/25 10:39:13;;;;;;;12.63;5.70;;;22.40;64.30;;;;;;4932239;29;20028;-95
2023/06/25 10:41:47;;;;;;;8.13;4.93;;;22.40;64.10;;;;;;4932933;29;20036;-96
2023/06/25 10:44:54;;;;;;;9.70;5.90;;;22.50;63.10;;;;;;4952626;29;20020;-96
2023/06/25 10:47:22;;;;;;;13.40;6.05;;;22.50;64.00;;;;;;4928204;29;20043;-96
2023/06/25 10:49:53;;;;;;;12.55;7.25;;;22.50;63.10;;;;;;4945006;29;20042;-95
2023/06/25 10:52:19;;;;;;;11.45;6.40;;;22.60;63.60;;;;;;4943297;29;20576;-96
2023/06/25 10:54:45;;;;;;;9.27;5.40;;;22.60;63.00;;;;;;4920645;29;20137;-90
2023/06/25 10:57:12;;;;;;;11.90;6.97;;;22.70;64.10;;;;;;4940826;29;20099;-94
2023/06/25 10:59:39;;;;;;;11.30;6.88;;;22.60;63.50;;;;;;4932242;29;20053;-95
2023/06/25 11:03:01;;;;;;;8.75;5.88;;;22.60;62.10;;;;;;4946723;29;20035;-94
2023/06/25 11:05:46;;;;;;;11.40;5.38;;;22.50;61.60;;;;;;4907656;29;20124;-95
2023/06/25 11:08:15;;;;;;;12.00;5.88;;;22.60;61.50;;;;;;4951415;29;20035;-96
2023/06/25 11:10:44;;;;;;;11.85;6.85;;;22.60;61.10;;;;;;5013366;28;20034;-95
2023/06/25 11:13:11;;;;;;;15.82;5.60;;;22.60;60.80;;;;;;5012832;28;20494;-93
2023/06/25 11:15:40;;;;;;;13.13;7.13;;;22.60;60.80;;;;;;4980482;28;20038;-92
2023/06/25 11:18:20;;;;;;;13.90;6.72;;;22.80;66.10;;;;;;5008842;28;20029;-93
2023/06/25 11:20:46;;;;;;;11.27;6.45;;;22.80;63.10;;;;;;4999524;28;20152;-93
2023/06/25 11:23:22;;;;;;;9.50;5.97;;;22.80;62.60;;;;;;4999507;28;20062;-94
2023/06/25 11:25:49;;;;;;;13.43;8.13;;;22.80;61.80;;;;;;5008494;28;20067;-94
2023/06/25 11:28:15;;;;;;;16.13;6.03;;;22.90;61.30;;;;;;5010082;28;20077;-94
2023/06/25 11:30:44;;;;;;;11.27;6.82;;;22.90;60.30;;;;;;5005284;28;20017;-94
2023/06/25 11:33:12;;;;;;;19.35;5.72;;;22.90;61.70;;;;;;5007825;28;20096;-90
2023/06/25 11:35:38;;;;;;;11.18;6.22;;;22.90;63.50;;;;;;5006934;28;20037;-90
2023/06/25 11:38:04;;;;;;;8.68;5.85;;;23.00;61.90;;;;;;5003326;28;20034;-94
2023/06/25 11:40:32;;;;;;;10.55;6.07;;;23.00;60.40;;;;;;5022862;28;20041;-93
2023/06/25 11:43:01;;;;;;;8.65;5.85;;;22.90;61.30;;;;;;5093720;28;20023;-93
2023/06/25 11:45:41;;;;;;;13.48;6.72;;;22.90;61.10;;;;;;5100632;28;20024;-96
2023/06/25 11:48:11;;;;;;;;;;;23.00;60.30;;;;;;5092026;28;20658;-92
2023/06/25 11:50:37;;;;;;;15.52;6.03;;;23.00;59.10;;;;;;5093591;28;19908;-91
2023/06/25 11:53:03;;;;;;;8.82;5.38;;;23.00;61.30;;;;;;5112528;28;20031;-91
2023/06/25 11:55:28;;;;;;;12.05;6.97;;;23.10;62.50;;;;;;5094504;28;20376;-94
2023/06/25 11:57:54;;;;;;;9.93;5.78;;;23.10;59.90;;;;;;5099287;28;20038;-93
2023/06/25 12:00:20;;;;;;;12.68;6.50;;;23.00;59.20;;;;;;5094414;28;20499;-95
2023/06/25 12:02:45;;;;;;;10.63;6.28;;;23.00;58.70;;;;;;5112849;28;20022;-94
2023/06/25 12:05:13;;;;;;;14.77;6.93;;;23.00;58.90;;;;;;5096551;28;20119;-94
2023/06/25 12:07:38;;;;;;;8.85;5.55;;;23.00;58.70;;;;;;5093434;28;20028;-91
2023/06/25 12:10:04;;;;;;;10.23;5.53;;;23.10;59.30;;;;;;5095370;28;20098;-93
2023/06/25 12:12:30;;;;;;;11.15;6.18;;;23.30;58.90;;;;;;5092546;28;20023;-95
2023/06/25 12:14:56;;;;;;;9.95;6.00;;;23.20;58.70;;;;;;5094343;28;20019;-95
2023/06/25 12:17:21;;;;;;;11.38;6.88;;;23.20;58.10;;;;;;5096661;28;20580;-93
2023/06/25 12:19:47;;;;;;;8.82;5.57;;;23.20;58.00;;;;;;5095434;28;20019;-92
2023/06/25 12:22:13;;;;;;;9.20;5.80;;;23.20;58.50;;;;;;5100816;28;20023;-95
2023/06/25 12:24:38;;;;;;;10.32;5.65;;;23.20;58.20;;;;;;5100995;28;20173;-93
2023/06/25 12:27:04;;;;;;;18.35;6.65;;;23.10;57.80;;;;;;5100359;28;20093;-92
2023/06/25 12:29:31;;;;;;;11.18;6.40;;;23.20;57.70;;;;;;5101663;28;20027;-96
2023/06/25 12:31:57;;;;;;;8.77;5.53;;;23.20;58.20;;;;;;5102159;28;20027;-96
2023/06/25 12:35:02;;;;;;;10.25;6.05;;;23.10;58.00;;;;;;5102699;28;20016;-95
2023/06/25 12:37:33;;;;;;;8.05;5.88;;;23.20;58.60;;;;;;5115954;27;20046;-96
2023/06/25 12:39:58;;;;;;;11.15;6.30;;;23.30;58.70;;;;;;5100188;28;20028;-94
2023/06/25 12:42:24;;;;;;;10.85;6.45;;;23.30;57.30;;;;;;5099712;28;20028;-96
2023/06/25 12:44:50;;;;;;;12.57;6.43;;;23.30;57.70;;;;;;5103847;28;20285;-96
2023/06/25 12:47:38;;;;;;;8.85;5.85;;;23.30;57.60;;;;;;5104133;28;20099;-94